sensor_id;sensor_type;location;lat;lon;timestamp;P1;durP1;ratioP1;P2;durP2;ratioP2
26908;SDS011;14477;51.038;4.588;2022-09-09T00:03:40;1.23;;;0.60;;
26908;SDS011;14477;51.038;4.588;2022-09-09T00:14:35;2.72;;;0.60;;
26908;SDS011;14477;51.038;4.588;2022-09-09T00:17:02;1.10;;;0.50;;
26908;SDS011;14477;51.038;4.588;2022-09-09T00:22:40;0.55;;;0.40;;
26908;SDS011;14477;51.038;4.588;2022-09-09T00:25:21;0.73;;;0.50;;
26908;SDS011;14477;51.038;4.588;2022-09-09T00:27:53;0.60;;;0.52;;
26908;SDS011;14477;51.038;4.588;2022-09-09T00:30:20;1.90;;;0.53;;
26908;SDS011;14477;51.038;4.588;2022-09-09T00:32:53;1.42;;;0.60;;
26908;SDS011;14477;51.038;4.588;2022-09-09T00:37:56;0.60;;;0.60;;
26908;SDS011;14477;51.038;4.588;2022-09-09T00:40:41;0.73;;;0.60;;
26908;SDS011;14477;51.038;4.588;2022-09-09T00:43:32;0.93;;;0.50;;
26908;SDS011;14477;51.038;4.588;2022-09-09T00:48:45;0.50;;;0.50;;
26908;SDS011;14477;51.038;4.588;2022-09-09T00:51:27;1.77;;;0.60;;
26908;SDS011;14477;51.038;4.588;2022-09-09T00:59:56;0.98;;;0.65;;
26908;SDS011;14477;51.038;4.588;2022-09-09T01:05:09;1.63;;;0.70;;
26908;SDS011;14477;51.038;4.588;2022-09-09T01:07:45;2.25;;;0.73;;
26908;SDS011;14477;51.038;4.588;2022-09-09T01:10:17;1.70;;;0.70;;
26908;SDS011;14477;51.038;4.588;2022-09-09T01:12:58;0.93;;;0.60;;
26908;SDS011;14477;51.038;4.588;2022-09-09T01:15:28;1.10;;;0.50;;
26908;SDS011;14477;51.038;4.588;2022-09-09T01:18:09;1.42;;;0.80;;
26908;SDS011;14477;51.038;4.588;2022-09-09T01:23:35;1.00;;;0.80;;
26908;SDS011;14477;51.038;4.588;2022-09-09T01:26:14;1.15;;;0.68;;
26908;SDS011;14477;51.038;4.588;2022-09-09T01:29:10;2.20;;;0.60;;
26908;SDS011;14477;51.038;4.588;2022-09-09T01:31:39;1.75;;;0.60;;
26908;SDS011;14477;51.038;4.588;2022-09-09T01:34:16;1.00;;;0.65;;
26908;SDS011;14477;51.038;4.588;2022-09-09T01:37:04;2.13;;;0.60;;
26908;SDS011;14477;51.038;4.588;2022-09-09T01:39:30;2.05;;;0.55;;
26908;SDS011;14477;51.038;4.588;2022-09-09T01:41:57;4.00;;;0.80;;
26908;SDS011;14477;51.038;4.588;2022-09-09T01:44:23;1.38;;;0.63;;
26908;SDS011;14477;51.038;4.588;2022-09-09T01:46:50;1.10;;;0.60;;
26908;SDS011;14477;51.038;4.588;2022-09-09T01:49:16;1.15;;;0.55;;
26908;SDS011;14477;51.038;4.588;2022-09-09T01:51:42;1.15;;;0.60;;
26908;SDS011;14477;51.038;4.588;2022-09-09T01:54:11;2.15;;;0.80;;
26908;SDS011;14477;51.038;4.588;2022-09-09T02:04:45;1.50;;;0.60;;
26908;SDS011;14477;51.038;4.588;2022-09-09T02:07:17;1.43;;;0.70;;
26908;SDS011;14477;51.038;4.588;2022-09-09T02:10:19;0.70;;;0.60;;
26908;SDS011;14477;51.038;4.588;2022-09-09T02:13:14;1.10;;;0.60;;
26908;SDS011;14477;51.038;4.588;2022-09-09T02:18:17;1.45;;;0.70;;
26908;SDS011;14477;51.038;4.588;2022-09-09T02:20:49;1.07;;;0.60;;
26908;SDS011;14477;51.038;4.588;2022-09-09T02:23:16;1.48;;;0.70;;
26908;SDS011;14477;51.038;4.588;2022-09-09T02:25:42;2.45;;;0.70;;
26908;SDS011;14477;51.038;4.588;2022-09-09T02:28:11;2.22;;;0.65;;
26908;SDS011;14477;51.038;4.588;2022-09-09T02:30:39;2.25;;;0.80;;
26908;SDS011;14477;51.038;4.588;2022-09-09T02:33:08;1.10;;;0.70;;
26908;SDS011;14477;51.038;4.588;2022-09-09T02:35:37;1.67;;;0.70;;
26908;SDS011;14477;51.038;4.588;2022-09-09T02:38:05;1.52;;;0.60;;
26908;SDS011;14477;51.038;4.588;2022-09-09T02:40:35;2.38;;;0.68;;
26908;SDS011;14477;51.038;4.588;2022-09-09T02:43:01;0.83;;;0.53;;
26908;SDS011;14477;51.038;4.588;2022-09-09T02:45:31;1.17;;;0.88;;
26908;SDS011;14477;51.038;4.588;2022-09-09T02:51:02;0.63;;;0.60;;
26908;SDS011;14477;51.038;4.588;2022-09-09T02:53:39;2.35;;;0.80;;
26908;SDS011;14477;51.038;4.588;2022-09-09T02:56:17;1.17;;;0.60;;
26908;SDS011;14477;51.038;4.588;2022-09-09T02:58:47;1.45;;;0.60;;
26908;SDS011;14477;51.038;4.588;2022-09-09T03:01:13;1.05;;;0.60;;
26908;SDS011;14477;51.038;4.588;2022-09-09T03:03:39;1.42;;;0.80;;
26908;SDS011;14477;51.038;4.588;2022-09-09T03:06:06;3.30;;;0.80;;
26908;SDS011;14477;51.038;4.588;2022-09-09T03:08:32;1.93;;;0.80;;
26908;SDS011;14477;51.038;4.588;2022-09-09T03:11:00;3.10;;;0.80;;
26908;SDS011;14477;51.038;4.588;2022-09-09T03:13:26;3.83;;;0.80;;
26908;SDS011;14477;51.038;4.588;2022-09-09T03:15:52;1.45;;;0.60;;
26908;SDS011;14477;51.038;4.588;2022-09-09T03:18:17;2.97;;;0.70;;
26908;SDS011;14477;51.038;4.588;2022-09-09T03:20:43;2.13;;;0.60;;
26908;SDS011;14477;51.038;4.588;2022-09-09T03:23:11;2.65;;;0.70;;
26908;SDS011;14477;51.038;4.588;2022-09-09T03:25:38;2.53;;;0.77;;
26908;SDS011;14477;51.038;4.588;2022-09-09T03:28:04;1.30;;;0.73;;
26908;SDS011;14477;51.038;4.588;2022-09-09T03:30:30;1.80;;;0.63;;
26908;SDS011;14477;51.038;4.588;2022-09-09T03:32:55;1.17;;;0.70;;
26908;SDS011;14477;51.038;4.588;2022-09-09T03:35:22;3.20;;;0.90;;
26908;SDS011;14477;51.038;4.588;2022-09-09T03:37:47;5.15;;;0.82;;
26908;SDS011;14477;51.038;4.588;2022-09-09T03:40:13;1.60;;;0.80;;
26908;SDS011;14477;51.038;4.588;2022-09-09T03:42:39;1.25;;;0.70;;
26908;SDS011;14477;51.038;4.588;2022-09-09T03:45:06;1.70;;;0.70;;
26908;SDS011;14477;51.038;4.588;2022-09-09T03:47:34;2.40;;;0.70;;
26908;SDS011;14477;51.038;4.588;2022-09-09T03:49:59;2.15;;;0.80;;
26908;SDS011;14477;51.038;4.588;2022-09-09T03:52:25;3.43;;;0.80;;
26908;SDS011;14477;51.038;4.588;2022-09-09T03:54:51;2.42;;;0.80;;
26908;SDS011;14477;51.038;4.588;2022-09-09T03:57:18;1.77;;;0.70;;
26908;SDS011;14477;51.038;4.588;2022-09-09T03:59:45;1.40;;;0.77;;
26908;SDS011;14477;51.038;4.588;2022-09-09T04:02:10;1.60;;;0.73;;
26908;SDS011;14477;51.038;4.588;2022-09-09T04:04:36;2.30;;;0.70;;
26908;SDS011;14477;51.038;4.588;2022-09-09T04:07:02;2.85;;;0.70;;
26908;SDS011;14477;51.038;4.588;2022-09-09T04:09:28;1.97;;;0.73;;
26908;SDS011;14477;51.038;4.588;2022-09-09T04:11:53;2.35;;;0.80;;
26908;SDS011;14477;51.038;4.588;2022-09-09T04:14:20;2.38;;;0.82;;
26908;SDS011;14477;51.038;4.588;2022-09-09T04:16:46;2.00;;;0.70;;
26908;SDS011;14477;51.038;4.588;2022-09-09T04:19:12;3.97;;;0.83;;
26908;SDS011;14477;51.038;4.588;2022-09-09T04:21:39;3.50;;;0.90;;
26908;SDS011;14477;51.038;4.588;2022-09-09T04:24:06;1.02;;;0.73;;
26908;SDS011;14477;51.038;4.588;2022-09-09T04:26:33;3.07;;;0.90;;
26908;SDS011;14477;51.038;4.588;2022-09-09T04:28:59;2.50;;;0.77;;
26908;SDS011;14477;51.038;4.588;2022-09-09T04:31:25;2.42;;;0.80;;
26908;SDS011;14477;51.038;4.588;2022-09-09T04:33:51;3.17;;;0.70;;
26908;SDS011;14477;51.038;4.588;2022-09-09T04:36:17;2.92;;;0.80;;
26908;SDS011;14477;51.038;4.588;2022-09-09T04:38:46;2.33;;;0.70;;
26908;SDS011;14477;51.038;4.588;2022-09-09T04:41:13;2.10;;;0.90;;
26908;SDS011;14477;51.038;4.588;2022-09-09T04:43:39;4.30;;;0.83;;
26908;SDS011;14477;51.038;4.588;2022-09-09T04:46:05;1.63;;;0.75;;
26908;SDS011;14477;51.038;4.588;2022-09-09T04:48:31;1.85;;;0.80;;
26908;SDS011;14477;51.038;4.588;2022-09-09T04:50:58;2.40;;;0.90;;
26908;SDS011;14477;51.038;4.588;2022-09-09T04:53:25;3.53;;;0.90;;
26908;SDS011;14477;51.038;4.588;2022-09-09T04:55:52;2.30;;;0.80;;
26908;SDS011;14477;51.038;4.588;2022-09-09T04:58:27;2.10;;;0.80;;
26908;SDS011;14477;51.038;4.588;2022-09-09T05:00:53;2.77;;;1.00;;
26908;SDS011;14477;51.038;4.588;2022-09-09T05:03:19;2.13;;;0.83;;
26908;SDS011;14477;51.038;4.588;2022-09-09T05:05:44;2.83;;;1.20;;
26908;SDS011;14477;51.038;4.588;2022-09-09T05:08:10;3.35;;;0.80;;
26908;SDS011;14477;51.038;4.588;2022-09-09T05:10:37;3.23;;;0.77;;
26908;SDS011;14477;51.038;4.588;2022-09-09T05:13:03;2.72;;;0.90;;
26908;SDS011;14477;51.038;4.588;2022-09-09T05:15:30;2.08;;;1.00;;
26908;SDS011;14477;51.038;4.588;2022-09-09T05:17:57;4.05;;;0.95;;
26908;SDS011;14477;51.038;4.588;2022-09-09T05:20:24;4.75;;;1.10;;
26908;SDS011;14477;51.038;4.588;2022-09-09T05:22:52;2.60;;;0.93;;
26908;SDS011;14477;51.038;4.588;2022-09-09T05:25:19;1.55;;;0.80;;
26908;SDS011;14477;51.038;4.588;2022-09-09T05:27:45;3.42;;;0.90;;
26908;SDS011;14477;51.038;4.588;2022-09-09T05:30:10;2.13;;;0.90;;
26908;SDS011;14477;51.038;4.588;2022-09-09T05:32:36;2.33;;;0.95;;
26908;SDS011;14477;51.038;4.588;2022-09-09T05:35:02;4.10;;;1.10;;
26908;SDS011;14477;51.038;4.588;2022-09-09T05:37:30;3.05;;;1.00;;
26908;SDS011;14477;51.038;4.588;2022-09-09T05:39:56;3.20;;;1.00;;
26908;SDS011;14477;51.038;4.588;2022-09-09T05:42:23;3.42;;;1.10;;
26908;SDS011;14477;51.038;4.588;2022-09-09T05:44:48;2.43;;;1.17;;
26908;SDS011;14477;51.038;4.588;2022-09-09T05:47:16;2.17;;;1.00;;
26908;SDS011;14477;51.038;4.588;2022-09-09T05:49:42;3.33;;;0.88;;
26908;SDS011;14477;51.038;4.588;2022-09-09T05:52:08;4.40;;;1.02;;
26908;SDS011;14477;51.038;4.588;2022-09-09T05:54:34;4.30;;;1.10;;
26908;SDS011;14477;51.038;4.588;2022-09-09T05:57:02;2.60;;;0.93;;
26908;SDS011;14477;51.038;4.588;2022-09-09T05:59:28;2.25;;;1.08;;
26908;SDS011;14477;51.038;4.588;2022-09-09T06:01:54;2.33;;;0.95;;
26908;SDS011;14477;51.038;4.588;2022-09-09T06:04:19;2.43;;;1.00;;
26908;SDS011;14477;51.038;4.588;2022-09-09T06:06:47;5.70;;;1.40;;
26908;SDS011;14477;51.038;4.588;2022-09-09T06:09:13;4.28;;;1.20;;
26908;SDS011;14477;51.038;4.588;2022-09-09T06:11:40;4.20;;;1.10;;
26908;SDS011;14477;51.038;4.588;2022-09-09T06:14:06;2.67;;;1.10;;
26908;SDS011;14477;51.038;4.588;2022-09-09T06:16:33;4.35;;;1.13;;
26908;SDS011;14477;51.038;4.588;2022-09-09T06:18:59;6.22;;;1.35;;
26908;SDS011;14477;51.038;4.588;2022-09-09T06:21:26;2.92;;;1.20;;
26908;SDS011;14477;51.038;4.588;2022-09-09T06:23:53;3.17;;;1.10;;
26908;SDS011;14477;51.038;4.588;2022-09-09T06:26:23;4.13;;;1.57;;
26908;SDS011;14477;51.038;4.588;2022-09-09T06:28:51;2.65;;;1.20;;
26908;SDS011;14477;51.038;4.588;2022-09-09T06:31:19;3.50;;;1.50;;
26908;SDS011;14477;51.038;4.588;2022-09-09T06:33:46;2.67;;;1.20;;
26908;SDS011;14477;51.038;4.588;2022-09-09T06:36:13;4.50;;;1.20;;
26908;SDS011;14477;51.038;4.588;2022-09-09T06:38:41;2.50;;;1.10;;
26908;SDS011;14477;51.038;4.588;2022-09-09T06:41:08;4.03;;;1.27;;
26908;SDS011;14477;51.038;4.588;2022-09-09T06:43:34;3.70;;;1.15;;
26908;SDS011;14477;51.038;4.588;2022-09-09T06:48:29;3.28;;;1.35;;
26908;SDS011;14477;51.038;4.588;2022-09-09T06:53:31;4.60;;;1.50;;
26908;SDS011;14477;51.038;4.588;2022-09-09T06:56:01;3.58;;;1.33;;
26908;SDS011;14477;51.038;4.588;2022-09-09T06:58:27;2.63;;;1.05;;
26908;SDS011;14477;51.038;4.588;2022-09-09T07:01:01;3.65;;;1.30;;
26908;SDS011;14477;51.038;4.588;2022-09-09T07:03:31;3.88;;;1.20;;
26908;SDS011;14477;51.038;4.588;2022-09-09T07:05:57;3.00;;;1.20;;
26908;SDS011;14477;51.038;4.588;2022-09-09T07:08:23;3.65;;;1.27;;
26908;SDS011;14477;51.038;4.588;2022-09-09T07:10:50;4.15;;;1.63;;
26908;SDS011;14477;51.038;4.588;2022-09-09T07:13:19;4.00;;;1.45;;
26908;SDS011;14477;51.038;4.588;2022-09-09T07:15:50;3.53;;;1.40;;
26908;SDS011;14477;51.038;4.588;2022-09-09T07:18:16;2.53;;;1.30;;
26908;SDS011;14477;51.038;4.588;2022-09-09T07:20:42;4.57;;;1.40;;
26908;SDS011;14477;51.038;4.588;2022-09-09T07:23:07;3.17;;;1.47;;
26908;SDS011;14477;51.038;4.588;2022-09-09T07:25:33;6.32;;;1.30;;
26908;SDS011;14477;51.038;4.588;2022-09-09T07:28:05;1.73;;;0.98;;
26908;SDS011;14477;51.038;4.588;2022-09-09T07:30:33;3.63;;;1.30;;
26908;SDS011;14477;51.038;4.588;2022-09-09T07:32:59;3.47;;;1.10;;
26908;SDS011;14477;51.038;4.588;2022-09-09T07:35:24;3.77;;;1.10;;
26908;SDS011;14477;51.038;4.588;2022-09-09T07:37:51;5.00;;;1.20;;
26908;SDS011;14477;51.038;4.588;2022-09-09T07:40:17;2.33;;;1.20;;
26908;SDS011;14477;51.038;4.588;2022-09-09T07:42:42;4.28;;;1.48;;
26908;SDS011;14477;51.038;4.588;2022-09-09T07:45:08;2.27;;;1.07;;
26908;SDS011;14477;51.038;4.588;2022-09-09T07:47:34;3.72;;;1.15;;
26908;SDS011;14477;51.038;4.588;2022-09-09T07:50:00;2.63;;;1.00;;
26908;SDS011;14477;51.038;4.588;2022-09-09T07:52:26;2.55;;;0.90;;
26908;SDS011;14477;51.038;4.588;2022-09-09T07:54:52;3.88;;;1.30;;
26908;SDS011;14477;51.038;4.588;2022-09-09T07:57:18;6.13;;;1.20;;
26908;SDS011;14477;51.038;4.588;2022-09-09T07:59:43;5.60;;;1.25;;
26908;SDS011;14477;51.038;4.588;2022-09-09T08:02:10;3.47;;;1.43;;
26908;SDS011;14477;51.038;4.588;2022-09-09T08:04:35;3.72;;;1.27;;
26908;SDS011;14477;51.038;4.588;2022-09-09T08:07:01;2.53;;;1.00;;
26908;SDS011;14477;51.038;4.588;2022-09-09T08:09:28;4.73;;;1.20;;
26908;SDS011;14477;51.038;4.588;2022-09-09T08:11:55;3.50;;;1.20;;
26908;SDS011;14477;51.038;4.588;2022-09-09T08:14:21;2.35;;;1.10;;
26908;SDS011;14477;51.038;4.588;2022-09-09T08:16:48;4.50;;;1.38;;
26908;SDS011;14477;51.038;4.588;2022-09-09T08:19:15;4.65;;;1.33;;
26908;SDS011;14477;51.038;4.588;2022-09-09T08:21:41;2.17;;;0.97;;
26908;SDS011;14477;51.038;4.588;2022-09-09T08:24:08;3.55;;;1.25;;
26908;SDS011;14477;51.038;4.588;2022-09-09T08:26:41;2.58;;;1.20;;
26908;SDS011;14477;51.038;4.588;2022-09-09T08:29:12;3.33;;;1.20;;
26908;SDS011;14477;51.038;4.588;2022-09-09T08:31:43;2.20;;;1.00;;
26908;SDS011;14477;51.038;4.588;2022-09-09T08:34:10;3.70;;;1.20;;
26908;SDS011;14477;51.038;4.588;2022-09-09T08:36:37;3.92;;;1.30;;
26908;SDS011;14477;51.038;4.588;2022-09-09T08:39:06;3.28;;;1.17;;
26908;SDS011;14477;51.038;4.588;2022-09-09T08:46:56;5.03;;;1.10;;
26908;SDS011;14477;51.038;4.588;2022-09-09T08:52:17;2.22;;;0.93;;
26908;SDS011;14477;51.038;4.588;2022-09-09T08:54:47;2.63;;;1.10;;
26908;SDS011;14477;51.038;4.588;2022-09-09T08:57:14;3.45;;;1.10;;
26908;SDS011;14477;51.038;4.588;2022-09-09T08:59:46;3.77;;;1.10;;
26908;SDS011;14477;51.038;4.588;2022-09-09T09:07:36;2.63;;;1.30;;
26908;SDS011;14477;51.038;4.588;2022-09-09T09:12:53;3.77;;;1.20;;
26908;SDS011;14477;51.038;4.588;2022-09-09T09:15:21;2.75;;;1.10;;
26908;SDS011;14477;51.038;4.588;2022-09-09T09:17:52;3.22;;;1.13;;
26908;SDS011;14477;51.038;4.588;2022-09-09T09:20:23;2.97;;;1.20;;
26908;SDS011;14477;51.038;4.588;2022-09-09T09:23:09;3.15;;;1.20;;
26908;SDS011;14477;51.038;4.588;2022-09-09T09:25:43;2.90;;;1.10;;
26908;SDS011;14477;51.038;4.588;2022-09-09T09:28:16;3.97;;;1.42;;
26908;SDS011;14477;51.038;4.588;2022-09-09T09:30:52;1.83;;;1.20;;
26908;SDS011;14477;51.038;4.588;2022-09-09T09:35:51;2.78;;;1.00;;
26908;SDS011;14477;51.038;4.588;2022-09-09T09:38:25;3.28;;;1.05;;
26908;SDS011;14477;51.038;4.588;2022-09-09T09:40:53;2.88;;;1.30;;
26908;SDS011;14477;51.038;4.588;2022-09-09T09:43:32;3.97;;;1.40;;
26908;SDS011;14477;51.038;4.588;2022-09-09T09:46:05;3.10;;;1.17;;
26908;SDS011;14477;51.038;4.588;2022-09-09T09:48:43;2.42;;;1.10;;
26908;SDS011;14477;51.038;4.588;2022-09-09T09:51:11;4.18;;;1.08;;
26908;SDS011;14477;51.038;4.588;2022-09-09T09:53:41;2.72;;;1.30;;
26908;SDS011;14477;51.038;4.588;2022-09-09T09:56:08;3.08;;;1.30;;
26908;SDS011;14477;51.038;4.588;2022-09-09T10:01:03;2.90;;;1.10;;
26908;SDS011;14477;51.038;4.588;2022-09-09T10:03:33;4.63;;;1.30;;
26908;SDS011;14477;51.038;4.588;2022-09-09T10:06:02;3.55;;;1.15;;
26908;SDS011;14477;51.038;4.588;2022-09-09T10:08:28;2.10;;;1.20;;
26908;SDS011;14477;51.038;4.588;2022-09-09T10:19:38;2.73;;;1.13;;
26908;SDS011;14477;51.038;4.588;2022-09-09T10:22:26;2.45;;;1.15;;
26908;SDS011;14477;51.038;4.588;2022-09-09T10:24:57;3.15;;;1.20;;
26908;SDS011;14477;51.038;4.588;2022-09-09T10:36:31;2.88;;;1.05;;
26908;SDS011;14477;51.038;4.588;2022-09-09T10:38:58;2.60;;;1.10;;
26908;SDS011;14477;51.038;4.588;2022-09-09T10:42:04;4.97;;;1.33;;
26908;SDS011;14477;51.038;4.588;2022-09-09T10:50:22;2.08;;;1.13;;
26908;SDS011;14477;51.038;4.588;2022-09-09T10:56:07;3.37;;;1.17;;
26908;SDS011;14477;51.038;4.588;2022-09-09T10:58:43;2.83;;;1.30;;
26908;SDS011;14477;51.038;4.588;2022-09-09T11:01:52;2.28;;;1.20;;
26908;SDS011;14477;51.038;4.588;2022-09-09T11:04:50;1.88;;;1.20;;
26908;SDS011;14477;51.038;4.588;2022-09-09T11:07:14;2.92;;;1.38;;
26908;SDS011;14477;51.038;4.588;2022-09-09T11:09:49;2.83;;;1.43;;
26908;SDS011;14477;51.038;4.588;2022-09-09T11:12:21;4.35;;;1.40;;
26908;SDS011;14477;51.038;4.588;2022-09-09T11:14:59;3.83;;;1.70;;
26908;SDS011;14477;51.038;4.588;2022-09-09T11:17:40;2.53;;;1.48;;
26908;SDS011;14477;51.038;4.588;2022-09-09T11:20:12;2.72;;;1.60;;
26908;SDS011;14477;51.038;4.588;2022-09-09T11:33:08;2.72;;;1.40;;
26908;SDS011;14477;51.038;4.588;2022-09-09T11:38:50;3.30;;;1.35;;
26908;SDS011;14477;51.038;4.588;2022-09-09T11:41:18;1.75;;;1.05;;
26908;SDS011;14477;51.038;4.588;2022-09-09T11:43:52;4.10;;;1.30;;
26908;SDS011;14477;51.038;4.588;2022-09-09T11:46:31;3.08;;;1.40;;
26908;SDS011;14477;51.038;4.588;2022-09-09T11:49:06;2.90;;;1.03;;
26908;SDS011;14477;51.038;4.588;2022-09-09T11:55:00;2.83;;;1.00;;
26908;SDS011;14477;51.038;4.588;2022-09-09T11:57:48;2.95;;;1.00;;
26908;SDS011;14477;51.038;4.588;2022-09-09T12:00:37;3.30;;;1.00;;
26908;SDS011;14477;51.038;4.588;2022-09-09T12:03:05;1.47;;;0.77;;
26908;SDS011;14477;51.038;4.588;2022-09-09T12:05:51;1.75;;;0.90;;
26908;SDS011;14477;51.038;4.588;2022-09-09T12:08:19;2.47;;;1.10;;
26908;SDS011;14477;51.038;4.588;2022-09-09T12:10:54;2.58;;;0.90;;
26908;SDS011;14477;51.038;4.588;2022-09-09T12:13:21;2.78;;;0.90;;
26908;SDS011;14477;51.038;4.588;2022-09-09T12:15:50;2.93;;;0.90;;
26908;SDS011;14477;51.038;4.588;2022-09-09T12:18:37;2.58;;;0.90;;
26908;SDS011;14477;51.038;4.588;2022-09-09T12:24:01;1.48;;;0.88;;
26908;SDS011;14477;51.038;4.588;2022-09-09T12:37:06;4.50;;;1.20;;
26908;SDS011;14477;51.038;4.588;2022-09-09T12:39:51;2.03;;;1.00;;
26908;SDS011;14477;51.038;4.588;2022-09-09T12:42:23;2.10;;;0.90;;
26908;SDS011;14477;51.038;4.588;2022-09-09T12:44:59;3.20;;;1.00;;
26908;SDS011;14477;51.038;4.588;2022-09-09T12:47:32;2.53;;;0.90;;
26908;SDS011;14477;51.038;4.588;2022-09-09T12:50:00;1.20;;;0.90;;
26908;SDS011;14477;51.038;4.588;2022-09-09T12:52:27;1.50;;;0.73;;
26908;SDS011;14477;51.038;4.588;2022-09-09T12:54:58;2.28;;;0.90;;
26908;SDS011;14477;51.038;4.588;2022-09-09T12:57:26;2.17;;;1.10;;
26908;SDS011;14477;51.038;4.588;2022-09-09T13:00:05;1.70;;;0.80;;
26908;SDS011;14477;51.038;4.588;2022-09-09T13:02:44;2.05;;;0.90;;
26908;SDS011;14477;51.038;4.588;2022-09-09T13:05:13;1.90;;;0.80;;
26908;SDS011;14477;51.038;4.588;2022-09-09T13:07:41;2.47;;;1.00;;
26908;SDS011;14477;51.038;4.588;2022-09-09T13:10:11;1.80;;;0.90;;
26908;SDS011;14477;51.038;4.588;2022-09-09T13:12:37;1.65;;;0.95;;
26908;SDS011;14477;51.038;4.588;2022-09-09T13:15:04;1.63;;;1.02;;
26908;SDS011;14477;51.038;4.588;2022-09-09T13:17:51;1.90;;;0.83;;
26908;SDS011;14477;51.038;4.588;2022-09-09T13:20:20;2.80;;;1.00;;
26908;SDS011;14477;51.038;4.588;2022-09-09T13:22:47;1.15;;;0.82;;
26908;SDS011;14477;51.038;4.588;2022-09-09T13:25:22;1.13;;;0.90;;
26908;SDS011;14477;51.038;4.588;2022-09-09T13:33:04;2.05;;;0.80;;
26908;SDS011;14477;51.038;4.588;2022-09-09T13:35:45;2.03;;;0.82;;
26908;SDS011;14477;51.038;4.588;2022-09-09T13:38:15;1.55;;;0.90;;
26908;SDS011;14477;51.038;4.588;2022-09-09T13:40:51;2.13;;;0.80;;
26908;SDS011;14477;51.038;4.588;2022-09-09T13:43:28;1.30;;;0.70;;
26908;SDS011;14477;51.038;4.588;2022-09-09T13:54:05;1.80;;;1.08;;
26908;SDS011;14477;51.038;4.588;2022-09-09T13:56:34;2.73;;;0.97;;
26908;SDS011;14477;51.038;4.588;2022-09-09T13:59:00;2.08;;;0.82;;
26908;SDS011;14477;51.038;4.588;2022-09-09T14:01:27;2.40;;;0.95;;
26908;SDS011;14477;51.038;4.588;2022-09-09T14:03:53;1.50;;;0.90;;
26908;SDS011;14477;51.038;4.588;2022-09-09T14:06:19;2.10;;;0.83;;
26908;SDS011;14477;51.038;4.588;2022-09-09T14:08:47;1.60;;;0.80;;
26908;SDS011;14477;51.038;4.588;2022-09-09T14:11:15;0.93;;;0.80;;
26908;SDS011;14477;51.038;4.588;2022-09-09T14:13:41;2.00;;;1.00;;
26908;SDS011;14477;51.038;4.588;2022-09-09T14:16:07;1.80;;;0.90;;
26908;SDS011;14477;51.038;4.588;2022-09-09T14:18:33;1.23;;;0.80;;
26908;SDS011;14477;51.038;4.588;2022-09-09T14:20:59;1.63;;;1.00;;
26908;SDS011;14477;51.038;4.588;2022-09-09T14:23:25;1.73;;;0.90;;
26908;SDS011;14477;51.038;4.588;2022-09-09T14:25:50;1.73;;;0.80;;
26908;SDS011;14477;51.038;4.588;2022-09-09T14:28:16;1.38;;;0.80;;
26908;SDS011;14477;51.038;4.588;2022-09-09T14:30:43;1.60;;;0.90;;
26908;SDS011;14477;51.038;4.588;2022-09-09T14:33:12;2.63;;;0.82;;
26908;SDS011;14477;51.038;4.588;2022-09-09T14:35:40;1.13;;;0.80;;
26908;SDS011;14477;51.038;4.588;2022-09-09T14:38:06;0.90;;;0.80;;
26908;SDS011;14477;51.038;4.588;2022-09-09T14:40:33;2.00;;;1.00;;
26908;SDS011;14477;51.038;4.588;2022-09-09T14:43:03;0.80;;;0.80;;
26908;SDS011;14477;51.038;4.588;2022-09-09T14:45:30;1.95;;;1.00;;
26908;SDS011;14477;51.038;4.588;2022-09-09T14:47:56;1.05;;;0.80;;
26908;SDS011;14477;51.038;4.588;2022-09-09T14:50:22;2.50;;;1.07;;
26908;SDS011;14477;51.038;4.588;2022-09-09T14:52:48;1.77;;;0.95;;
26908;SDS011;14477;51.038;4.588;2022-09-09T14:55:15;1.50;;;0.90;;
26908;SDS011;14477;51.038;4.588;2022-09-09T14:57:41;1.40;;;0.90;;
26908;SDS011;14477;51.038;4.588;2022-09-09T15:00:08;1.77;;;0.90;;
26908;SDS011;14477;51.038;4.588;2022-09-09T15:02:36;1.27;;;0.90;;
26908;SDS011;14477;51.038;4.588;2022-09-09T15:05:02;2.58;;;1.10;;
26908;SDS011;14477;51.038;4.588;2022-09-09T15:07:29;1.23;;;0.82;;
26908;SDS011;14477;51.038;4.588;2022-09-09T15:09:56;2.10;;;0.90;;
26908;SDS011;14477;51.038;4.588;2022-09-09T15:12:23;1.92;;;0.90;;
26908;SDS011;14477;51.038;4.588;2022-09-09T15:14:49;2.42;;;0.95;;
26908;SDS011;14477;51.038;4.588;2022-09-09T15:17:15;1.13;;;1.00;;
26908;SDS011;14477;51.038;4.588;2022-09-09T15:19:41;1.83;;;0.90;;
26908;SDS011;14477;51.038;4.588;2022-09-09T15:22:07;2.22;;;1.13;;
26908;SDS011;14477;51.038;4.588;2022-09-09T15:24:34;1.90;;;1.00;;
26908;SDS011;14477;51.038;4.588;2022-09-09T15:27:00;1.60;;;1.00;;
26908;SDS011;14477;51.038;4.588;2022-09-09T15:29:26;1.85;;;0.98;;
26908;SDS011;14477;51.038;4.588;2022-09-09T15:31:55;0.85;;;0.70;;
26908;SDS011;14477;51.038;4.588;2022-09-09T15:34:21;0.82;;;0.65;;
26908;SDS011;14477;51.038;4.588;2022-09-09T15:36:47;1.63;;;0.53;;
26908;SDS011;14477;51.038;4.588;2022-09-09T15:39:14;0.60;;;0.50;;
26908;SDS011;14477;51.038;4.588;2022-09-09T15:41:41;0.82;;;0.60;;
26908;SDS011;14477;51.038;4.588;2022-09-09T15:44:08;0.38;;;0.38;;
26908;SDS011;14477;51.038;4.588;2022-09-09T15:46:38;2.15;;;0.75;;
26908;SDS011;14477;51.038;4.588;2022-09-09T15:51:40;1.58;;;0.70;;
26908;SDS011;14477;51.038;4.588;2022-09-09T15:54:07;1.65;;;0.70;;
26908;SDS011;14477;51.038;4.588;2022-09-09T15:56:34;1.00;;;0.63;;
26908;SDS011;14477;51.038;4.588;2022-09-09T15:59:00;1.83;;;0.70;;
26908;SDS011;14477;51.038;4.588;2022-09-09T16:01:28;0.90;;;0.70;;
26908;SDS011;14477;51.038;4.588;2022-09-09T16:03:54;1.02;;;0.73;;
26908;SDS011;14477;51.038;4.588;2022-09-09T16:06:21;0.85;;;0.60;;
26908;SDS011;14477;51.038;4.588;2022-09-09T16:08:48;1.13;;;0.50;;
26908;SDS011;14477;51.038;4.588;2022-09-09T16:11:16;1.42;;;0.60;;
26908;SDS011;14477;51.038;4.588;2022-09-09T16:13:45;0.88;;;0.60;;
26908;SDS011;14477;51.038;4.588;2022-09-09T16:16:12;1.58;;;0.70;;
26908;SDS011;14477;51.038;4.588;2022-09-09T16:18:40;1.10;;;0.70;;
26908;SDS011;14477;51.038;4.588;2022-09-09T16:21:15;2.03;;;0.80;;
26908;SDS011;14477;51.038;4.588;2022-09-09T16:23:43;1.85;;;0.90;;
26908;SDS011;14477;51.038;4.588;2022-09-09T16:26:12;2.00;;;0.90;;
26908;SDS011;14477;51.038;4.588;2022-09-09T16:28:39;1.85;;;0.90;;
26908;SDS011;14477;51.038;4.588;2022-09-09T16:31:06;1.05;;;0.90;;
26908;SDS011;14477;51.038;4.588;2022-09-09T16:33:32;2.17;;;1.10;;
26908;SDS011;14477;51.038;4.588;2022-09-09T16:35:58;1.85;;;1.00;;
26908;SDS011;14477;51.038;4.588;2022-09-09T16:38:29;2.47;;;1.15;;
26908;SDS011;14477;51.038;4.588;2022-09-09T16:40:58;2.13;;;1.00;;
26908;SDS011;14477;51.038;4.588;2022-09-09T16:43:24;2.40;;;1.00;;
26908;SDS011;14477;51.038;4.588;2022-09-09T16:45:50;1.30;;;1.03;;
26908;SDS011;14477;51.038;4.588;2022-09-09T16:48:15;1.73;;;1.10;;
26908;SDS011;14477;51.038;4.588;2022-09-09T16:50:41;2.07;;;1.23;;
26908;SDS011;14477;51.038;4.588;2022-09-09T16:53:06;1.55;;;1.20;;
26908;SDS011;14477;51.038;4.588;2022-09-09T16:55:37;2.27;;;1.20;;
26908;SDS011;14477;51.038;4.588;2022-09-09T16:58:04;2.58;;;1.20;;
26908;SDS011;14477;51.038;4.588;2022-09-09T17:00:30;2.55;;;1.40;;
26908;SDS011;14477;51.038;4.588;2022-09-09T17:02:56;2.17;;;1.00;;
26908;SDS011;14477;51.038;4.588;2022-09-09T17:05:22;1.42;;;1.20;;
26908;SDS011;14477;51.038;4.588;2022-09-09T17:07:48;2.03;;;1.30;;
26908;SDS011;14477;51.038;4.588;2022-09-09T17:10:14;3.75;;;1.38;;
26908;SDS011;14477;51.038;4.588;2022-09-09T17:12:39;2.17;;;1.30;;
26908;SDS011;14477;51.038;4.588;2022-09-09T17:15:06;2.67;;;1.10;;
26908;SDS011;14477;51.038;4.588;2022-09-09T17:17:32;4.30;;;1.40;;
26908;SDS011;14477;51.038;4.588;2022-09-09T17:19:58;2.53;;;1.10;;
26908;SDS011;14477;51.038;4.588;2022-09-09T17:22:24;2.08;;;0.98;;
26908;SDS011;14477;51.038;4.588;2022-09-09T17:24:51;2.00;;;1.10;;